Time;durP1;ratioP1;P1;durP2;ratioP2;P2;SDS_P1;SDS_P2;PMS_P1;PMS_P2;Temp;Humidity;BMP_temperature;BMP_pressure;BME280_temperature;BME280_humidity;BME280_pressure;Samples;Min_cycle;Max_cycle;Signal;HPM_P1;HPM_P2
2023/06/17 00:02:10;;;;;;;11.13;6.30;;;;;;;;;;20997693;28;20036;-67
2023/06/17 00:12:12;;;;;;;10.07;6.57;;;;;;;;;;20997102;28;20044;-67
2023/06/17 00:22:13;;;;;;;12.02;6.28;;;;;;;;;;20997662;28;20047;-68
2023/06/17 00:32:14;;;;;;;13.50;9.90;;;;;;;;;;20996093;28;20567;-67
2023/06/17 00:42:16;;;;;;;7.57;6.53;;;;;;;;;;20996970;28;20101;-66
2023/06/17 00:52:17;;;;;;;11.38;6.05;;;;;;;;;;20996747;28;20052;-66
2023/06/17 01:02:19;;;;;;;15.20;7.15;;;;;;;;;;20996275;28;20076;-67
2023/06/17 01:12:23;;;;;;;7.10;5.95;;;;;;;;;;20995992;28;20397;-67
2023/06/17 01:22:25;;;;;;;9.75;5.38;;;;;;;;;;20994458;28;20123;-67
2023/06/17 01:32:27;;;;;;;7.72;5.63;;;;;;;;;;20994425;28;20106;-67
2023/06/17 01:42:33;;;;;;;9.50;5.38;;;;;;;;;;20998116;28;20047;-67
2023/06/17 01:52:34;;;;;;;10.03;6.07;;;;;;;;;;21009506;28;20040;-67
2023/06/17 02:02:36;;;;;;;9.07;6.13;;;;;;;;;;21007162;28;20044;-67
2023/06/17 02:12:37;;;;;;;11.00;6.88;;;;;;;;;;21006477;28;20040;-66
2023/06/17 02:22:38;;;;;;;7.35;5.93;;;;;;;;;;21006879;28;20192;-67
2023/06/17 02:32:39;;;;;;;6.88;5.78;;;;;;;;;;21004745;28;20056;-66
2023/06/17 02:42:40;;;;;;;8.38;6.72;;;;;;;;;;21005582;28;20052;-67
2023/06/17 02:52:41;;;;;;;6.75;5.75;;;;;;;;;;21004603;28;20409;-66
2023/06/17 03:02:42;;;;;;;8.48;6.53;;;;;;;;;;21002719;28;20051;-67
2023/06/17 03:12:43;;;;;;;7.97;5.97;;;;;;;;;;21003244;28;20481;-67
2023/06/17 03:22:45;;;;;;;9.25;5.82;;;;;;;;;;21002042;28;20469;-66
2023/06/17 03:32:47;;;;;;;7.45;5.72;;;;;;;;;;21000265;28;20063;-66
2023/06/17 03:42:48;;;;;;;6.75;5.22;;;;;;;;;;20999434;28;20052;-67
2023/06/17 03:52:49;;;;;;;7.05;5.65;;;;;;;;;;20999955;28;20115;-66
2023/06/17 04:02:50;;;;;;;6.32;5.28;;;;;;;;;;20997064;28;20045;-66
2023/06/17 04:12:52;;;;;;;8.25;5.20;;;;;;;;;;20998168;28;20374;-66
2023/06/17 04:22:53;;;;;;;7.15;5.40;;;;;;;;;;20997720;28;20496;-66
2023/06/17 04:32:58;;;;;;;8.70;5.70;;;;;;;;;;20996516;28;20061;-67
2023/06/17 04:42:59;;;;;;;8.60;5.57;;;;;;;;;;20995604;28;20044;-67
2023/06/17 04:53:03;;;;;;;7.70;5.90;;;;;;;;;;20996562;28;20094;-66
2023/06/17 05:03:04;;;;;;;8.35;5.43;;;;;;;;;;20997306;28;20389;-66
2023/06/17 05:13:05;;;;;;;7.53;5.70;;;;;;;;;;20994525;28;20044;-67
2023/06/17 05:23:07;;;;;;;6.65;5.28;;;;;;;;;;21010148;28;20049;-67
2023/06/17 05:33:08;;;;;;;8.52;5.97;;;;;;;;;;21009459;28;20461;-67
2023/06/17 05:43:09;;;;;;;8.02;5.60;;;;;;;;;;21009605;28;20045;-67
2023/06/17 05:53:10;;;;;;;10.75;5.78;;;;;;;;;;21008905;28;20045;-67
2023/06/17 06:03:11;;;;;;;10.07;6.18;;;;;;;;;;21007223;28;20041;-67
2023/06/17 06:13:12;;;;;;;8.15;6.25;;;;;;;;;;21006181;28;20049;-66
2023/06/17 06:23:13;;;;;;;7.22;5.72;;;;;;;;;;21006769;28;20528;-67
2023/06/17 06:33:14;;;;;;;10.00;5.63;;;;;;;;;;21004168;28;20059;-67
2023/06/17 06:43:16;;;;;;;7.15;5.38;;;;;;;;;;21005265;28;20041;-66
2023/06/17 06:53:19;;;;;;;5.30;4.45;;;;;;;;;;21002000;28;20124;-67
2023/06/17 07:03:20;;;;;;;6.93;4.55;;;;;;;;;;21002170;28;20037;-67
2023/06/17 07:13:21;;;;;;;8.65;5.05;;;;;;;;;;21001770;28;20222;-67
2023/06/17 07:23:23;;;;;;;8.50;4.88;;;;;;;;;;21001123;28;20070;-67
2023/06/17 07:33:26;;;;;;;9.80;5.03;;;;;;;;;;20999447;28;20064;-66
2023/06/17 07:43:27;;;;;;;6.45;4.03;;;;;;;;;;20999790;28;20170;-67
2023/06/17 07:53:28;;;;;;;6.68;3.40;;;;;;;;;;20997711;28;20098;-67
2023/06/17 08:03:30;;;;;;;7.85;4.15;;;;;;;;;;20997228;28;20048;-63
2023/06/17 08:13:31;;;;;;;5.43;4.50;;;;;;;;;;20996143;28;20059;-62
2023/06/17 08:24:35;;;;;;;8.13;4.40;;;;;;;;;;21310917;27;20112;-69
2023/06/17 08:34:36;;;;;;;6.53;3.80;;;;;;;;;;21307035;27;20096;-69
2023/06/17 08:44:43;;;;;;;5.47;4.05;;;;;;;;;;21317522;27;20049;-69
2023/06/17 08:54:45;;;;;;;6.45;3.72;;;;;;;;;;21313227;27;20035;-69
2023/06/17 09:04:46;;;;;;;8.93;4.60;;;;;;;;;;21320446;27;20100;-69
2023/06/17 09:14:47;;;;;;;6.05;4.20;;;;;;;;;;21320030;27;20400;-69
2023/06/17 09:24:48;;;;;;;8.05;4.47;;;;;;;;;;21319217;27;20438;-69
2023/06/17 09:34:49;;;;;;;8.50;4.80;;;;;;;;;;21267658;27;20051;-70
2023/06/17 09:44:51;;;;;;;7.22;3.85;;;;;;;;;;21260751;27;20093;-69
2023/06/17 09:54:52;;;;;;;5.80;4.05;;;;;;;;;;21258358;27;20046;-70
2023/06/17 10:04:53;;;;;;;5.35;3.85;;;;;;;;;;21258651;27;20043;-71
2023/06/17 10:14:55;;;;;;;4.50;3.80;;;;;;;;;;21257609;27;20048;-69
2023/06/17 10:24:56;;;;;;;6.75;3.50;;;;;;;;;;21256415;27;20043;-69
2023/06/17 10:35:06;;;;;;;4.45;3.42;;;;;;;;;;21256148;27;20525;-70
2023/06/17 10:45:12;;;;;;;4.35;3.35;;;;;;;;;;21254234;27;20473;-70
2023/06/17 10:55:13;;;;;;;4.55;3.33;;;;;;;;;;21253642;27;20078;-70
2023/06/17 11:05:16;;;;;;;6.90;3.53;;;;;;;;;;21253577;27;20043;-70
2023/06/17 11:15:17;;;;;;;5.38;4.28;;;;;;;;;;21251818;27;20051;-70
2023/06/17 11:25:18;;;;;;;8.13;3.40;;;;;;;;;;21253163;27;20545;-70
2023/06/17 11:35:20;;;;;;;4.15;3.10;;;;;;;;;;21250871;27;20449;-68
2023/06/17 11:45:21;;;;;;;5.90;3.63;;;;;;;;;;21216488;27;20099;-62
2023/06/17 11:55:30;;;;;;;10.43;3.47;;;;;;;;;;21237905;27;20074;-60
2023/06/17 12:05:32;;;;;;;7.45;3.45;;;;;;;;;;21233547;27;20051;-61
2023/06/17 12:18:28;;;;;;;4.38;3.05;;;;;;;;;;21066108;27;20391;-62
2023/06/17 12:28:30;;;;;;;9.32;8.20;;;;;;;;;;21058159;28;20071;-68
2023/06/17 12:38:31;;;;;;;4.05;3.38;;;;;;;;;;21061382;28;20079;-68
2023/06/17 12:48:35;;;;;;;3.30;2.97;;;;;;;;;;21066514;28;20493;-67
2023/06/17 12:58:36;;;;;;;5.43;2.90;;;;;;;;;;21066265;28;20119;-68
2023/06/17 13:08:38;;;;;;;5.80;4.13;;;;;;;;;;21064938;28;20379;-67
2023/06/17 13:18:40;;;;;;;4.75;3.65;;;;;;;;;;21064282;28;20489;-69
2023/06/17 13:28:41;;;;;;;8.15;4.40;;;;;;;;;;21014424;28;20044;-69
2023/06/17 13:38:42;;;;;;;6.93;4.03;;;;;;;;;;21007452;28;20045;-69
2023/06/17 13:48:43;;;;;;;6.55;4.97;;;;;;;;;;21007079;28;20469;-69
2023/06/17 13:58:45;;;;;;;8.52;3.75;;;;;;;;;;21004640;28;20098;-69
2023/06/17 14:08:46;;;;;;;6.18;4.03;;;;;;;;;;21003532;28;20044;-70
2023/06/17 14:18:47;;;;;;;3.90;2.92;;;;;;;;;;21005001;28;20052;-69
2023/06/17 14:28:48;;;;;;;3.80;2.92;;;;;;;;;;21002585;28;20131;-70
2023/06/17 14:38:50;;;;;;;5.88;2.90;;;;;;;;;;21001991;28;20124;-70
2023/06/17 14:48:52;;;;;;;6.10;3.38;;;;;;;;;;21001923;28;20044;-69
2023/06/17 14:58:53;;;;;;;5.18;3.45;;;;;;;;;;21001410;28;20067;-70
2023/06/17 15:09:14;;;;;;;5.97;3.22;;;;;;;;;;21000132;28;20052;-70
2023/06/17 15:19:15;;;;;;;4.15;3.63;;;;;;;;;;20998481;28;20044;-69
2023/06/17 15:39:18;;;;;;;10.38;8.02;;;;;;;;;;21068702;27;20496;-69
2023/06/17 15:49:19;;;;;;;3.85;3.45;;;;;;;;;;21066989;28;20080;-70
2023/06/17 15:59:20;;;;;;;6.22;4.00;;;;;;;;;;21066634;28;20123;-70
2023/06/17 16:09:22;;;;;;;5.68;4.43;;;;;;;;;;21065913;28;20513;-70
2023/06/17 16:19:25;;;;;;;5.03;3.22;;;;;;;;;;21064320;28;20420;-70
2023/06/17 16:29:26;;;;;;;5.90;2.97;;;;;;;;;;21064754;28;20485;-69
2023/06/17 16:39:27;;;;;;;4.13;3.50;;;;;;;;;;21064499;28;20053;-69
2023/06/17 16:49:28;;;;;;;17.60;12.20;;;;;;;;;;21014179;28;20048;-69
2023/06/17 16:59:30;;;;;;;8.15;4.22;;;;;;;;;;21007248;28;20127;-69
2023/06/17 17:09:31;;;;;;;6.68;5.82;;;;;;;;;;21005514;28;20040;-70
2023/06/17 17:19:33;;;;;;;8.27;5.22;;;;;;;;;;21004264;28;20040;-70
2023/06/17 17:29:35;;;;;;;5.20;4.55;;;;;;;;;;21004697;28;20044;-69
2023/06/17 17:39:36;;;;;;;9.50;7.35;;;;;;;;;;21002884;28;20040;-70
2023/06/17 17:49:37;;;;;;;11.65;7.15;;;;;;;;;;21003467;28;20402;-69
2023/06/17 17:59:38;;;;;;;8.18;5.50;;;;;;;;;;21001198;28;20044;-70
2023/06/17 18:09:40;;;;;;;6.07;4.22;;;;;;;;;;21001834;28;20127;-68
2023/06/17 18:19:43;;;;;;;6.82;4.47;;;;;;;;;;20999906;28;20123;-69
2023/06/17 18:29:44;;;;;;;4.55;4.15;;;;;;;;;;21000095;28;20076;-69
2023/06/17 18:39:45;;;;;;;5.35;4.10;;;;;;;;;;20998474;28;20056;-69
2023/06/17 18:49:46;;;;;;;6.20;4.90;;;;;;;;;;20997639;28;20051;-68
2023/06/17 18:59:47;;;;;;;6.00;4.78;;;;;;;;;;20998107;28;20440;-68
2023/06/17 19:09:50;;;;;;;5.90;4.95;;;;;;;;;;20996982;28;20549;-68
2023/06/17 19:19:51;;;;;;;5.35;4.70;;;;;;;;;;20995892;28;20052;-69
2023/06/17 19:29:56;;;;;;;5.68;4.60;;;;;;;;;;20994744;28;20097;-68
2023/06/17 19:39:57;;;;;;;6.88;5.20;;;;;;;;;;20995324;28;20044;-70
2023/06/17 19:49:59;;;;;;;8.60;7.07;;;;;;;;;;20994720;28;20060;-69
2023/06/17 20:00:00;;;;;;;9.60;6.10;;;;;;;;;;20994064;28;20083;-69
2023/06/17 20:10:01;;;;;;;8.85;5.60;;;;;;;;;;20995143;28;20041;-68
2023/06/17 20:20:03;;;;;;;7.38;5.68;;;;;;;;;;20999743;28;20049;-69
2023/06/17 20:30:04;;;;;;;5.13;3.70;;;;;;;;;;21009757;28;20058;-69
2023/06/17 20:40:06;;;;;;;6.13;3.88;;;;;;;;;;21008442;28;20058;-68
2023/06/17 20:50:07;;;;;;;9.70;3.90;;;;;;;;;;21006920;28;20128;-70
2023/06/17 21:00:09;;;;;;;4.78;3.78;;;;;;;;;;21006490;28;20053;-69
2023/06/17 21:10:10;;;;;;;5.97;3.40;;;;;;;;;;21005231;28;20052;-69
2023/06/17 21:20:11;;;;;;;4.80;3.15;;;;;;;;;;21004483;28;20044;-69
2023/06/17 21:30:12;;;;;;;8.50;3.53;;;;;;;;;;21003404;28;20131;-69
2023/06/17 21:40:13;;;;;;;4.07;3.03;;;;;;;;;;21003117;28;20131;-69
2023/06/17 21:50:15;;;;;;;7.35;2.95;;;;;;;;;;21003621;28;20080;-69
2023/06/17 22:00:18;;;;;;;5.13;3.03;;;;;;;;;;21003059;28;20549;-68
2023/06/17 22:10:19;;;;;;;3.90;2.90;;;;;;;;;;21000887;28;20093;-69
2023/06/17 22:20:20;;;;;;;6.68;3.22;;;;;;;;;;21001387;28;20048;-69
2023/06/17 22:30:21;;;;;;;4.32;3.20;;;;;;;;;;20998650;28;20140;-69
2023/06/17 22:40:23;;;;;;;5.50;3.05;;;;;;;;;;20999059;28;20052;-70
2023/06/17 22:50:25;;;;;;;4.22;3.00;;;;;;;;;;20997887;28;20045;-69
2023/06/17 23:00:26;;;;;;;4.63;2.72;;;;;;;;;;20998716;28;20059;-70
2023/06/17 23:10:27;;;;;;;3.45;2.58;;;;;;;;;;20998037;28;20130;-68
2023/06/17 23:20:28;;;;;;;3.95;2.47;;;;;;;;;;20997530;28;20109;-68
2023/06/17 23:30:29;;;;;;;4.10;2.40;;;;;;;;;;20996515;28;20064;-69
2023/06/17 23:40:30;;;;;;;3.28;2.80;;;;;;;;;;20995436;28;20105;-68
2023/06/17 23:50:32;;;;;;;3.30;2.50;;;;;;;;;;20995111;28;20136;-69
